createdAt,value
2017-12-21T00:00:16.260Z,19.84
2017-12-21T00:01:16.238Z,19.81
2017-12-21T00:02:16.253Z,19.91
2017-12-21T00:03:16.196Z,19.86
2017-12-21T00:04:16.182Z,19.87
2017-12-21T00:05:16.160Z,19.87
2017-12-21T00:06:16.172Z,19.87
2017-12-21T00:07:16.119Z,19.83
2017-12-21T00:08:16.096Z,19.83
2017-12-21T00:09:16.116Z,19.80
2017-12-21T00:15:27.247Z,19.94
2017-12-21T00:16:27.220Z,19.87
2017-12-21T00:17:27.188Z,19.84
2017-12-21T00:18:27.201Z,19.81
2017-12-21T00:19:27.180Z,19.83
2017-12-21T00:20:27.210Z,19.84
2017-12-21T00:21:27.214Z,19.88
2017-12-21T00:22:27.193Z,19.84
2017-12-21T00:23:27.136Z,19.86
2017-12-21T00:24:27.114Z,19.80
2017-12-21T00:25:27.130Z,19.86
2017-12-21T00:26:27.111Z,19.84
2017-12-21T00:27:27.095Z,19.87
2017-12-21T00:28:27.037Z,19.81
2017-12-21T00:29:27.051Z,19.98
2017-12-21T00:30:27.014Z,19.96
2017-12-21T00:31:26.978Z,19.96
2017-12-21T00:32:26.993Z,19.99
2017-12-21T00:33:26.967Z,20.11
2017-12-21T00:34:26.921Z,20.03
2017-12-21T00:35:26.925Z,20.06
2017-12-21T00:36:26.881Z,20.08
2017-12-21T00:37:26.854Z,20.11
2017-12-21T00:38:26.874Z,20.20
2017-12-21T00:39:26.851Z,20.10
2017-12-21T00:40:26.809Z,20.11
2017-12-21T00:41:26.793Z,20.13
2017-12-21T00:42:26.787Z,20.06
2017-12-21T00:43:26.730Z,20.08
2017-12-21T00:44:26.712Z,20.13
2017-12-21T00:45:26.718Z,19.99
2017-12-21T00:46:26.689Z,20.08
2017-12-21T00:47:26.688Z,19.98
2017-12-21T00:48:26.653Z,20.02
2017-12-21T00:49:26.648Z,20.08
2017-12-21T00:50:26.633Z,20.01
2017-12-21T00:51:26.579Z,19.95
2017-12-21T00:52:26.553Z,20.06
2017-12-21T00:53:26.570Z,20.11
2017-12-21T00:54:26.516Z,20.10
2017-12-21T00:55:26.513Z,20.05
2017-12-21T00:56:26.494Z,19.98
2017-12-21T00:57:26.459Z,20.05
2017-12-21T00:58:26.451Z,20.14
2017-12-21T00:59:26.416Z,20.14
2017-12-21T01:00:26.343Z,20.28
2017-12-21T01:01:26.303Z,20.23
2017-12-21T01:02:26.288Z,20.29
2017-12-21T01:03:26.268Z,20.36
2017-12-21T01:04:26.250Z,20.38
2017-12-21T01:05:26.228Z,20.50
2017-12-21T01:06:26.212Z,20.51
2017-12-21T01:07:26.208Z,20.47
2017-12-21T01:08:26.169Z,20.51
2017-12-21T01:09:26.176Z,20.43
2017-12-21T01:10:26.126Z,20.58
2017-12-21T01:11:26.108Z,20.55
2017-12-21T01:12:26.122Z,20.61
2017-12-21T01:13:26.088Z,20.61
2017-12-21T01:14:26.049Z,20.57
2017-12-21T01:15:26.059Z,20.59
2017-12-21T01:16:26.041Z,20.47
2017-12-21T01:17:26.001Z,20.59
2017-12-21T01:18:25.968Z,20.43
2017-12-21T01:19:25.947Z,20.58
2017-12-21T01:20:25.927Z,20.52
2017-12-21T01:21:25.907Z,20.66
2017-12-21T01:22:25.901Z,20.50
2017-12-21T01:23:25.900Z,20.58
2017-12-21T01:24:25.854Z,20.64
2017-12-21T01:25:25.830Z,20.66
2017-12-21T01:26:25.806Z,20.70
2017-12-21T01:27:25.793Z,20.74
2017-12-21T01:28:25.800Z,20.73
2017-12-21T01:29:25.785Z,20.74
2017-12-21T01:30:25.736Z,20.72
2017-12-21T01:31:25.749Z,20.77
2017-12-21T01:32:25.696Z,20.69
2017-12-21T01:33:25.673Z,20.72
2017-12-21T01:34:25.683Z,20.77
2017-12-21T01:35:25.664Z,20.76
2017-12-21T01:36:25.645Z,20.73
2017-12-21T01:37:25.592Z,20.69
2017-12-21T01:38:25.578Z,20.69
2017-12-21T01:39:25.588Z,20.77
2017-12-21T01:40:25.565Z,20.69
2017-12-21T01:41:25.547Z,20.79
2017-12-21T01:42:25.493Z,20.61
2017-12-21T01:43:25.505Z,20.47
2017-12-21T01:44:25.453Z,20.35
2017-12-21T01:45:25.468Z,20.26
2017-12-21T01:46:25.415Z,20.10
2017-12-21T01:47:25.395Z,20.13
2017-12-21T01:48:25.366Z,19.99
2017-12-21T01:49:25.395Z,19.86
2017-12-21T01:50:25.335Z,19.84
2017-12-21T01:51:25.311Z,19.78
2017-12-21T01:52:25.292Z,19.62
2017-12-21T01:53:25.272Z,19.59
2017-12-21T01:54:25.287Z,19.51
2017-12-21T01:55:25.260Z,19.40
2017-12-21T01:56:25.206Z,19.47
2017-12-21T01:57:25.222Z,19.37
2017-12-21T01:58:25.192Z,19.37
2017-12-21T01:59:25.182Z,19.54
2017-12-21T02:00:25.161Z,19.58
2017-12-21T02:01:25.118Z,19.55
2017-12-21T02:02:25.089Z,19.51
2017-12-21T02:03:25.078Z,19.46
2017-12-21T02:04:25.074Z,19.43
2017-12-21T02:05:25.024Z,19.56
2017-12-21T02:06:25.017Z,19.71
2017-12-21T02:07:25.018Z,19.63
2017-12-21T02:08:24.976Z,19.61
2017-12-21T02:09:24.978Z,19.58
2017-12-21T02:10:24.942Z,19.55
2017-12-21T02:11:24.934Z,19.63
2017-12-21T02:12:24.874Z,19.62
2017-12-21T02:13:24.900Z,19.66
2017-12-21T02:14:24.835Z,19.65
2017-12-21T02:15:24.815Z,19.68
2017-12-21T02:16:24.824Z,19.68
2017-12-21T02:17:24.806Z,19.59
2017-12-21T02:18:24.783Z,19.63
2017-12-21T02:19:24.766Z,19.55
2017-12-21T02:20:24.740Z,19.54
2017-12-21T02:21:24.720Z,19.54
2017-12-21T02:22:24.703Z,19.58
2017-12-21T02:23:24.642Z,19.65
2017-12-21T02:24:24.640Z,19.61
2017-12-21T02:25:24.603Z,19.61
2017-12-21T02:26:24.580Z,19.56
2017-12-21T02:27:24.563Z,19.58
2017-12-21T02:28:24.539Z,19.65
2017-12-21T02:29:24.521Z,19.65
2017-12-21T02:30:24.502Z,19.66
2017-12-21T02:31:24.518Z,19.61
2017-12-21T02:32:24.490Z,19.65
2017-12-21T02:33:24.436Z,19.69
2017-12-21T02:34:24.452Z,19.66
2017-12-21T02:35:24.429Z,19.66
2017-12-21T02:36:24.377Z,19.63
2017-12-21T02:37:24.361Z,19.68
2017-12-21T02:38:24.335Z,19.61
2017-12-21T02:39:24.326Z,19.65
2017-12-21T02:40:24.292Z,19.66
2017-12-21T02:41:24.305Z,19.69
2017-12-21T02:42:24.286Z,19.71
2017-12-21T02:43:24.265Z,19.73
2017-12-21T02:44:24.239Z,19.68
2017-12-21T02:45:24.222Z,19.65
2017-12-21T02:46:24.169Z,19.63
2017-12-21T02:47:24.145Z,19.55
2017-12-21T02:48:24.143Z,19.61
2017-12-21T02:49:24.119Z,19.54
2017-12-21T02:50:24.115Z,19.56
2017-12-21T02:51:24.096Z,19.54
2017-12-21T02:52:24.044Z,19.56
2017-12-21T02:53:24.054Z,19.62
2017-12-21T02:54:24.032Z,19.62
2017-12-21T02:55:23.979Z,19.65
2017-12-21T02:56:23.997Z,19.59
2017-12-21T02:57:23.964Z,19.62
2017-12-21T02:58:23.917Z,19.76
2017-12-21T02:59:23.900Z,19.78
2017-12-21T03:00:23.882Z,19.73
2017-12-21T03:01:23.871Z,19.77
2017-12-21T03:02:23.837Z,19.71
2017-12-21T03:03:23.816Z,19.68
2017-12-21T03:04:23.812Z,19.71
2017-12-21T03:05:23.780Z,19.61
2017-12-21T03:06:23.760Z,19.63
2017-12-21T03:07:23.732Z,19.54
2017-12-21T03:08:23.709Z,19.58
2017-12-21T03:09:23.689Z,19.62
2017-12-21T03:10:23.688Z,19.63
2017-12-21T03:11:23.647Z,19.62
2017-12-21T03:12:23.631Z,19.74
2017-12-21T03:13:23.606Z,19.73
2017-12-21T03:14:23.592Z,19.74
2017-12-21T03:15:23.584Z,19.76
2017-12-21T03:16:23.562Z,19.73
2017-12-21T03:17:23.547Z,19.71
2017-12-21T03:18:23.507Z,19.62
2017-12-21T03:19:23.489Z,19.68
2017-12-21T03:20:23.485Z,19.55
2017-12-21T03:21:23.474Z,19.43
2017-12-21T03:22:23.421Z,19.46
2017-12-21T03:23:23.403Z,19.39
2017-12-21T03:24:56.586Z,19.33
2017-12-21T03:25:23.360Z,19.44
2017-12-21T03:26:23.372Z,19.39
2017-12-21T03:27:23.348Z,19.33
2017-12-21T03:28:23.297Z,19.36
2017-12-21T03:29:23.278Z,19.40
2017-12-21T03:30:23.289Z,19.37
2017-12-21T03:31:23.235Z,19.37
2017-12-21T03:32:23.215Z,19.37
2017-12-21T03:33:23.225Z,19.29
2017-12-21T03:34:23.169Z,19.32
2017-12-21T03:35:23.185Z,19.33
2017-12-21T03:36:23.127Z,19.28
2017-12-21T03:37:23.107Z,19.33
2017-12-21T03:38:23.086Z,19.22
2017-12-21T03:39:23.097Z,19.26
2017-12-21T03:40:23.042Z,19.22
2017-12-21T03:41:23.026Z,19.32
2017-12-21T03:42:23.024Z,19.32
2017-12-21T03:43:23.017Z,19.33
2017-12-21T03:44:22.960Z,19.36
2017-12-21T03:45:22.947Z,19.36
2017-12-21T03:46:22.952Z,19.39
2017-12-21T03:47:22.935Z,19.41
2017-12-21T03:48:22.880Z,19.37
2017-12-21T03:49:22.893Z,19.32
2017-12-21T03:50:22.874Z,19.36
2017-12-21T03:51:22.824Z,19.36
2017-12-21T03:52:22.794Z,19.31
2017-12-21T03:53:22.789Z,19.40
2017-12-21T03:54:22.753Z,19.41
2017-12-21T03:55:22.733Z,19.41
2017-12-21T03:56:22.748Z,19.41
2017-12-21T03:57:22.711Z,19.33
2017-12-21T03:58:22.710Z,19.33
2017-12-21T03:59:22.654Z,19.37
2017-12-21T04:00:22.665Z,19.40
2017-12-21T04:01:22.608Z,19.37
2017-12-21T04:02:22.608Z,19.37
2017-12-21T04:03:22.590Z,19.37
2017-12-21T04:04:22.545Z,19.46
2017-12-21T04:05:22.528Z,19.48
2017-12-21T04:06:22.527Z,19.39
2017-12-21T04:07:22.522Z,19.33
2017-12-21T04:08:22.461Z,19.33
2017-12-21T04:09:22.446Z,19.39
2017-12-21T04:10:22.443Z,19.31
2017-12-21T04:11:22.435Z,19.37
2017-12-21T04:12:22.455Z,19.36
2017-12-21T04:13:22.397Z,19.36
2017-12-21T04:14:22.360Z,19.39
2017-12-21T04:15:22.320Z,19.32
2017-12-21T04:16:22.338Z,19.33
2017-12-21T04:17:22.314Z,19.41
2017-12-21T04:18:22.262Z,19.37
2017-12-21T04:19:22.241Z,19.36
2017-12-21T04:20:22.250Z,19.44
2017-12-21T04:21:22.196Z,19.36
2017-12-21T04:22:22.176Z,19.37
2017-12-21T04:23:22.156Z,19.37
2017-12-21T04:24:22.150Z,19.37
2017-12-21T04:25:22.129Z,19.37
2017-12-21T04:26:22.094Z,19.46
2017-12-21T04:27:22.090Z,19.31
2017-12-21T04:28:22.069Z,19.44
2017-12-21T04:29:22.037Z,19.36
2017-12-21T04:30:22.021Z,19.39
2017-12-21T04:31:22.024Z,19.44
2017-12-21T04:32:21.972Z,19.51
2017-12-21T04:33:21.986Z,19.50
2017-12-21T04:34:21.963Z,19.62
2017-12-21T04:35:21.920Z,19.44
2017-12-21T04:36:21.925Z,19.46
2017-12-21T04:37:21.870Z,19.47
2017-12-21T04:38:21.848Z,19.46
2017-12-21T04:39:21.864Z,19.32
2017-12-21T04:40:21.843Z,19.41
2017-12-21T04:41:21.803Z,19.39
2017-12-21T04:42:21.803Z,19.36
2017-12-21T04:43:21.749Z,19.40
2017-12-21T04:44:21.728Z,19.39
2017-12-21T04:45:22.288Z,19.32
2017-12-21T04:46:21.688Z,19.39
2017-12-21T04:47:21.670Z,19.29
2017-12-21T04:48:21.644Z,19.32
2017-12-21T04:49:21.657Z,19.32
2017-12-21T04:50:21.633Z,19.32
2017-12-21T04:51:21.578Z,19.29
2017-12-21T04:52:21.596Z,19.36
2017-12-21T04:53:21.542Z,19.36
2017-12-21T04:54:21.551Z,19.44
2017-12-21T04:55:21.515Z,19.44
2017-12-21T04:56:21.477Z,19.33
2017-12-21T04:57:21.475Z,19.54
2017-12-21T04:58:21.455Z,19.46
2017-12-21T04:59:21.427Z,19.46
2017-12-21T05:00:21.394Z,19.46
2017-12-21T05:01:21.377Z,19.46
2017-12-21T05:02:21.375Z,19.40
2017-12-21T05:03:21.379Z,19.55
2017-12-21T05:04:21.331Z,19.50
2017-12-21T05:05:21.323Z,19.50
2017-12-21T05:06:21.290Z,19.47
2017-12-21T05:07:21.262Z,19.47
2017-12-21T05:08:21.248Z,19.55
2017-12-21T05:09:21.241Z,19.62
2017-12-21T05:10:21.188Z,19.65
2017-12-21T05:11:21.207Z,19.56
2017-12-21T05:12:21.186Z,19.51
2017-12-21T05:13:21.163Z,19.47
2017-12-21T05:14:21.140Z,19.50
2017-12-21T05:15:21.122Z,19.46
2017-12-21T05:16:21.066Z,19.55
2017-12-21T05:17:21.080Z,19.43
2017-12-21T05:18:21.033Z,19.55
2017-12-21T05:19:21.003Z,19.51
2017-12-21T05:20:20.983Z,19.43
2017-12-21T05:21:20.958Z,19.46
2017-12-21T05:22:20.977Z,19.46
2017-12-21T05:23:20.923Z,19.54
2017-12-21T05:24:20.921Z,19.47
2017-12-21T05:25:20.917Z,19.44
2017-12-21T05:26:54.068Z,19.51
2017-12-21T05:27:20.838Z,19.41
2017-12-21T05:28:20.849Z,19.36
2017-12-21T05:29:20.829Z,19.39
2017-12-21T05:30:20.780Z,19.37
2017-12-21T05:31:20.791Z,19.41
2017-12-21T05:32:20.750Z,19.40
2017-12-21T05:33:20.714Z,19.44
2017-12-21T05:34:20.724Z,19.39
2017-12-21T05:35:20.707Z,19.39
2017-12-21T05:36:20.688Z,19.39
2017-12-21T05:37:20.664Z,19.44
2017-12-21T05:38:20.609Z,19.41
2017-12-21T05:39:20.596Z,19.39
2017-12-21T05:40:20.564Z,19.51
2017-12-21T05:41:20.687Z,19.39
2017-12-21T05:42:20.544Z,19.56
2017-12-21T05:43:20.507Z,19.44
2017-12-21T05:44:20.483Z,19.47
2017-12-21T05:45:20.500Z,19.51
2017-12-21T05:46:20.459Z,19.44
2017-12-21T05:47:20.439Z,19.39
2017-12-21T05:48:20.402Z,19.37
2017-12-21T05:49:20.388Z,19.40
2017-12-21T05:50:20.376Z,19.39
2017-12-21T05:51:20.356Z,19.41
2017-12-21T05:52:20.356Z,19.37
2017-12-21T05:53:20.331Z,19.40
2017-12-21T05:54:20.318Z,19.40
2017-12-21T05:55:20.294Z,19.41
2017-12-21T05:56:20.271Z,19.36
2017-12-21T05:57:20.250Z,19.32
2017-12-21T05:58:20.196Z,19.31
2017-12-21T05:59:20.181Z,19.37
2017-12-21T06:00:20.188Z,19.28
2017-12-21T06:01:20.164Z,19.28
2017-12-21T06:02:20.143Z,19.23
2017-12-21T06:03:20.125Z,19.22
2017-12-21T06:04:20.075Z,19.25
2017-12-21T06:05:20.051Z,19.22
2017-12-21T06:06:20.053Z,19.26
2017-12-21T06:07:20.007Z,19.31
2017-12-21T06:08:19.986Z,19.21
2017-12-21T06:09:19.963Z,19.32
2017-12-21T06:10:19.978Z,19.32
2017-12-21T06:11:19.959Z,19.28
2017-12-21T06:12:19.935Z,19.26
2017-12-21T06:13:19.915Z,19.26
2017-12-21T06:14:19.896Z,19.28
2017-12-21T06:15:19.860Z,19.25
2017-12-21T06:16:19.819Z,19.25
2017-12-21T06:17:19.831Z,19.19
2017-12-21T06:18:19.781Z,19.22
2017-12-21T06:19:19.778Z,19.25
2017-12-21T06:20:19.762Z,19.22
2017-12-21T06:21:19.717Z,19.22
2017-12-21T06:22:19.711Z,19.21
2017-12-21T06:23:19.677Z,19.21
2017-12-21T06:24:19.655Z,19.29
2017-12-21T06:25:19.673Z,19.23
2017-12-21T06:26:19.650Z,19.21
2017-12-21T06:27:19.631Z,19.21
2017-12-21T06:28:19.586Z,19.11
2017-12-21T06:29:19.548Z,19.25
2017-12-21T06:30:19.545Z,19.21
2017-12-21T06:31:19.507Z,19.13
2017-12-21T06:32:19.503Z,19.22
2017-12-21T06:33:19.467Z,19.13
2017-12-21T06:34:19.448Z,19.19
2017-12-21T06:35:19.432Z,19.21
2017-12-21T06:36:19.426Z,19.18
2017-12-21T06:37:19.407Z,19.19
2017-12-21T06:38:19.366Z,19.18
2017-12-21T06:39:19.377Z,19.22
2017-12-21T06:40:19.353Z,19.22
2017-12-21T06:41:19.308Z,19.25
2017-12-21T06:42:19.317Z,19.14
2017-12-21T06:43:19.292Z,19.18
2017-12-21T06:44:19.237Z,19.25
2017-12-21T06:45:19.252Z,19.23
2017-12-21T06:46:19.237Z,19.21
2017-12-21T06:47:19.197Z,19.22
2017-12-21T06:48:19.173Z,19.23
2017-12-21T06:49:19.170Z,19.16
2017-12-21T06:50:19.115Z,19.14
2017-12-21T06:51:19.119Z,19.21
2017-12-21T06:52:19.073Z,19.23
2017-12-21T06:53:19.091Z,19.28
2017-12-21T06:54:19.055Z,19.23
2017-12-21T06:55:19.014Z,19.37
2017-12-21T06:56:19.001Z,19.36
2017-12-21T06:57:18.986Z,19.36
2017-12-21T06:58:18.982Z,19.23
2017-12-21T06:59:18.936Z,19.18
2017-12-21T07:00:18.911Z,19.28
2017-12-21T07:01:18.890Z,19.14
2017-12-21T07:02:52.080Z,19.14
2017-12-21T07:03:18.885Z,19.22
2017-12-21T07:04:18.828Z,19.21
2017-12-21T07:05:18.844Z,19.25
2017-12-21T07:06:18.816Z,19.28
2017-12-21T07:07:18.764Z,19.25
2017-12-21T07:08:18.775Z,19.29
2017-12-21T07:09:18.729Z,19.26
2017-12-21T07:10:18.713Z,19.23
2017-12-21T07:11:18.717Z,19.25
2017-12-21T07:12:18.658Z,19.23
2017-12-21T07:13:18.672Z,19.19
2017-12-21T07:14:18.650Z,19.21
2017-12-21T07:15:18.601Z,19.32
2017-12-21T07:16:18.580Z,19.33
2017-12-21T07:17:18.558Z,19.37
2017-12-21T07:18:18.572Z,19.31
2017-12-21T07:19:18.549Z,19.36
2017-12-21T07:20:18.496Z,19.28
2017-12-21T07:21:18.510Z,19.37
2017-12-21T07:22:18.489Z,19.37
2017-12-21T07:23:18.472Z,19.37
2017-12-21T07:24:18.412Z,19.44
2017-12-21T07:25:18.392Z,19.32
2017-12-21T07:26:18.376Z,19.33
2017-12-21T07:27:18.383Z,19.28
2017-12-21T07:28:18.328Z,19.28
2017-12-21T07:29:18.341Z,19.25
2017-12-21T07:30:18.323Z,19.28
2017-12-21T07:31:18.268Z,19.19
2017-12-21T07:32:18.286Z,19.37
2017-12-21T07:33:18.227Z,19.43
2017-12-21T07:34:18.209Z,19.33
2017-12-21T07:35:18.194Z,19.43
2017-12-21T07:36:18.198Z,19.40
2017-12-21T07:37:18.156Z,19.37
2017-12-21T07:38:18.131Z,19.37
2017-12-21T07:39:18.106Z,19.37
2017-12-21T07:40:18.120Z,19.40
2017-12-21T07:41:18.064Z,19.33
2017-12-21T07:42:18.053Z,19.37
2017-12-21T07:43:18.062Z,19.33
2017-12-21T07:44:18.035Z,19.37
2017-12-21T07:45:17.988Z,19.32
2017-12-21T07:46:17.993Z,19.36
2017-12-21T07:47:17.941Z,19.37
2017-12-21T07:48:17.927Z,19.37
2017-12-21T07:49:17.917Z,19.37
2017-12-21T07:50:17.897Z,19.32
2017-12-21T07:51:17.860Z,19.28
2017-12-21T07:52:17.845Z,19.36
2017-12-21T07:53:17.818Z,19.37
2017-12-21T07:54:17.800Z,19.39
2017-12-21T07:55:17.775Z,19.36
2017-12-21T07:56:17.792Z,19.40
2017-12-21T07:57:17.741Z,19.37
2017-12-21T07:58:17.722Z,19.41
2017-12-21T07:59:17.691Z,19.37
2017-12-21T08:00:17.678Z,19.39
2017-12-21T08:01:17.679Z,19.36
2017-12-21T08:02:17.632Z,19.36
2017-12-21T08:03:17.616Z,19.36
2017-12-21T08:04:17.629Z,19.33
2017-12-21T08:05:17.612Z,19.31
2017-12-21T08:06:17.557Z,19.37
2017-12-21T08:07:17.571Z,19.40
2017-12-21T08:08:17.545Z,19.44
2017-12-21T08:09:17.525Z,19.40
2017-12-21T08:10:17.471Z,19.36
2017-12-21T08:11:17.467Z,19.40
2017-12-21T08:12:17.445Z,19.36
2017-12-21T08:13:17.414Z,19.33
2017-12-21T08:14:17.410Z,19.40
2017-12-21T08:15:17.366Z,19.37
2017-12-21T08:16:17.349Z,19.36
2017-12-21T08:17:17.345Z,19.36
2017-12-21T08:18:17.331Z,19.36
2017-12-21T08:19:17.300Z,19.40
2017-12-21T08:20:17.302Z,19.39
2017-12-21T08:21:17.252Z,19.36
2017-12-21T08:22:17.228Z,19.44
2017-12-21T08:23:17.212Z,19.44
2017-12-21T08:24:17.187Z,19.40
2017-12-21T08:25:17.204Z,19.40
2017-12-21T08:26:17.180Z,19.46
2017-12-21T08:27:17.127Z,19.47
2017-12-21T08:28:17.109Z,19.46
2017-12-21T08:29:17.119Z,19.47
2017-12-21T08:30:17.082Z,19.48
2017-12-21T08:31:17.049Z,19.55
2017-12-21T08:32:17.058Z,19.47
2017-12-21T08:33:17.007Z,19.48
2017-12-21T08:34:16.987Z,19.40
2017-12-21T08:35:17.007Z,19.46
2017-12-21T08:36:16.981Z,19.47
2017-12-21T08:37:16.923Z,19.44
2017-12-21T08:38:16.907Z,19.41
2017-12-21T08:39:16.885Z,19.32
2017-12-21T08:40:16.878Z,19.36
2017-12-21T08:41:16.882Z,19.43
2017-12-21T08:42:16.827Z,19.48
2017-12-21T08:43:16.838Z,19.48
2017-12-21T08:44:16.824Z,19.54
2017-12-21T08:45:16.797Z,19.61
2017-12-21T08:46:16.740Z,19.48
2017-12-21T08:47:16.720Z,19.54
2017-12-21T08:48:16.733Z,19.43
2017-12-21T08:49:16.713Z,19.43
2017-12-21T08:50:16.697Z,19.47
2017-12-21T08:51:16.643Z,19.44
2017-12-21T08:52:16.628Z,19.47
2017-12-21T08:53:16.638Z,19.44
2017-12-21T08:54:16.576Z,19.54
2017-12-21T08:55:16.613Z,19.46
2017-12-21T08:56:16.537Z,19.55
2017-12-21T08:57:16.525Z,19.68
2017-12-21T08:58:16.497Z,19.66
2017-12-21T08:59:16.472Z,19.55
2017-12-21T09:00:16.459Z,19.51
2017-12-21T09:01:16.454Z,19.44
2017-12-21T09:02:16.452Z,19.56
2017-12-21T09:03:16.399Z,19.51
2017-12-21T09:04:16.389Z,19.46
2017-12-21T09:05:16.388Z,19.56
2017-12-21T09:06:16.359Z,19.50
2017-12-21T09:07:16.317Z,19.44
2017-12-21T09:08:16.316Z,19.46
2017-12-21T09:09:16.307Z,19.55
2017-12-21T09:10:16.287Z,19.48
2017-12-21T09:11:16.237Z,19.47
2017-12-21T09:12:16.232Z,19.41
2017-12-21T09:13:16.196Z,19.51
2017-12-21T09:14:16.175Z,19.41
2017-12-21T09:15:16.167Z,19.44
2017-12-21T09:16:16.163Z,19.39
2017-12-21T09:17:16.129Z,19.40
2017-12-21T09:18:16.123Z,19.40
2017-12-21T09:19:16.071Z,19.21
2017-12-21T09:20:16.071Z,19.21
2017-12-21T09:21:16.066Z,19.10
2017-12-21T09:22:16.024Z,19.02
2017-12-21T09:23:16.024Z,19.08
2017-12-21T09:24:15.966Z,18.95
2017-12-21T09:25:15.983Z,19.04
2017-12-21T09:26:16.496Z,19.00
2017-12-21T09:27:15.939Z,19.11
2017-12-21T09:28:15.888Z,18.99
2017-12-21T09:29:15.868Z,18.98
2017-12-21T09:30:15.846Z,19.02
2017-12-21T09:31:15.825Z,19.08
2017-12-21T09:32:15.805Z,19.06
2017-12-21T09:33:15.823Z,19.08
2017-12-21T09:34:15.764Z,19.06
2017-12-21T09:35:15.741Z,19.16
2017-12-21T09:36:15.756Z,19.23
2017-12-21T09:37:15.707Z,19.19
2017-12-21T09:38:15.682Z,19.23
2017-12-21T09:39:15.679Z,19.32
2017-12-21T09:40:15.681Z,19.44
2017-12-21T09:41:15.622Z,19.48
2017-12-21T09:42:15.634Z,19.50
2017-12-21T09:43:15.600Z,19.41
2017-12-21T09:44:15.559Z,19.48
2017-12-21T09:45:15.536Z,19.50
2017-12-21T09:46:15.519Z,19.39
2017-12-21T09:47:15.519Z,19.46
2017-12-21T09:48:15.476Z,19.46
2017-12-21T09:49:15.462Z,19.43
2017-12-21T09:50:15.442Z,19.43
2017-12-21T09:51:15.417Z,19.46
2017-12-21T09:52:15.396Z,19.39
2017-12-21T09:53:15.375Z,19.41
2017-12-21T09:54:15.370Z,19.46
2017-12-21T09:55:15.350Z,19.55
2017-12-21T09:56:15.352Z,19.43
2017-12-21T09:57:15.293Z,19.47
2017-12-21T09:58:15.274Z,19.54
2017-12-21T09:59:15.272Z,19.56
2017-12-21T10:00:15.229Z,19.54
2017-12-21T10:01:15.217Z,19.56
2017-12-21T10:02:15.189Z,19.62
2017-12-21T10:03:15.205Z,19.56
2017-12-21T10:04:15.155Z,19.61
2017-12-21T10:05:15.164Z,19.58
2017-12-21T10:06:15.115Z,19.56
2017-12-21T10:07:15.127Z,19.59
2017-12-21T10:08:15.103Z,19.58
2017-12-21T10:09:15.083Z,19.59
2017-12-21T10:10:15.063Z,19.54
2017-12-21T10:11:15.046Z,19.56
2017-12-21T10:12:14.989Z,19.41
2017-12-21T10:13:14.969Z,19.46
2017-12-21T10:14:14.952Z,19.37
2017-12-21T10:15:14.947Z,19.33
2017-12-21T10:16:14.947Z,19.37
2017-12-21T10:17:14.892Z,19.39
2017-12-21T10:18:14.870Z,19.39
2017-12-21T10:19:14.855Z,19.36
2017-12-21T10:20:14.866Z,19.29
2017-12-21T10:21:14.810Z,19.26
2017-12-21T10:22:14.819Z,19.25
2017-12-21T10:23:14.798Z,19.29
2017-12-21T10:24:14.746Z,19.32
2017-12-21T10:25:14.762Z,19.37
2017-12-21T10:26:14.708Z,19.39
2017-12-21T10:27:14.688Z,19.36
2017-12-21T10:28:14.674Z,19.39
2017-12-21T10:29:14.646Z,19.36
2017-12-21T10:30:14.659Z,19.41
2017-12-21T10:31:14.608Z,19.40
2017-12-21T10:32:14.584Z,19.39
2017-12-21T10:33:14.599Z,19.40
2017-12-21T10:34:14.566Z,19.40
2017-12-21T10:35:14.523Z,19.46
2017-12-21T10:36:14.518Z,19.31
2017-12-21T10:37:14.502Z,19.46
2017-12-21T10:38:14.465Z,19.46
2017-12-21T10:39:14.461Z,19.41
2017-12-21T10:40:14.456Z,19.44
2017-12-21T10:41:14.402Z,19.39
2017-12-21T10:42:14.381Z,19.39
2017-12-21T10:43:14.372Z,19.43
2017-12-21T10:44:14.343Z,19.39
2017-12-21T10:45:14.323Z,19.47
2017-12-21T10:46:14.307Z,19.40
2017-12-21T10:47:14.280Z,19.43
2017-12-21T10:48:14.294Z,19.54
2017-12-21T10:49:14.242Z,19.54
2017-12-21T10:50:14.226Z,19.43
2017-12-21T10:51:14.235Z,19.43
2017-12-21T10:52:14.211Z,19.31
2017-12-21T10:53:14.175Z,19.47
2017-12-21T10:54:14.138Z,19.51
2017-12-21T10:55:14.128Z,19.48
2017-12-21T10:56:14.094Z,19.47
2017-12-21T10:57:14.082Z,19.55
2017-12-21T10:58:14.077Z,19.55
2017-12-21T10:59:14.077Z,19.62
2017-12-21T11:00:14.032Z,19.55
2017-12-21T11:01:14.042Z,19.56
2017-12-21T11:02:13.996Z,19.62
2017-12-21T11:03:13.978Z,19.66
2017-12-21T11:04:13.935Z,19.66
2017-12-21T11:05:13.952Z,19.69
2017-12-21T11:06:13.899Z,19.77
2017-12-21T11:07:13.880Z,19.66
2017-12-21T11:08:13.902Z,19.69
2017-12-21T11:09:13.838Z,19.68
2017-12-21T11:10:13.818Z,19.74
2017-12-21T11:11:13.795Z,19.61
2017-12-21T11:12:13.772Z,19.76
2017-12-21T11:13:13.806Z,19.74
2017-12-21T11:14:13.736Z,19.77
2017-12-21T11:15:13.748Z,19.71
2017-12-21T11:16:13.699Z,19.77
2017-12-21T11:17:13.679Z,19.76
2017-12-21T11:18:13.691Z,19.81
2017-12-21T11:19:13.654Z,19.71
2017-12-21T11:20:13.636Z,19.80
2017-12-21T11:21:13.613Z,19.83
2017-12-21T11:22:13.592Z,19.86
2017-12-21T11:23:13.595Z,19.87
2017-12-21T11:24:13.568Z,19.87
2017-12-21T11:25:13.550Z,19.87
2017-12-21T11:26:13.518Z,19.94
2017-12-21T11:27:13.509Z,19.96
2017-12-21T11:28:13.457Z,19.99
2017-12-21T11:29:13.437Z,19.87
2017-12-21T11:30:13.436Z,19.71
2017-12-21T11:31:13.414Z,19.66
2017-12-21T11:32:13.395Z,19.63
2017-12-21T11:33:13.360Z,19.61
2017-12-21T11:34:13.370Z,19.56
2017-12-21T11:35:13.353Z,19.55
2017-12-21T11:36:13.329Z,19.56
2017-12-21T11:37:13.292Z,19.62
2017-12-21T11:38:13.257Z,19.56
2017-12-21T11:39:13.245Z,19.65
2017-12-21T11:40:13.218Z,19.59
2017-12-21T11:41:13.198Z,19.58
2017-12-21T11:42:13.177Z,19.63
2017-12-21T11:43:13.160Z,19.69
2017-12-21T11:44:13.152Z,19.61
2017-12-21T11:45:13.221Z,19.68
2017-12-21T11:46:13.220Z,19.74
2017-12-21T11:47:13.078Z,19.77
2017-12-21T11:48:13.094Z,19.77
2017-12-21T11:49:13.038Z,19.84
2017-12-21T11:50:13.017Z,19.84
2017-12-21T11:51:13.010Z,19.92
2017-12-21T11:52:12.977Z,19.81
2017-12-21T11:53:12.957Z,19.86
2017-12-21T11:54:12.934Z,19.86
2017-12-21T11:55:12.946Z,19.98
2017-12-21T11:56:12.902Z,19.95
2017-12-21T11:57:12.908Z,19.96
2017-12-21T11:58:12.872Z,20.01
2017-12-21T11:59:12.838Z,19.98
2017-12-21T12:00:12.814Z,19.99
2017-12-21T12:01:12.800Z,19.96
2017-12-21T12:02:12.809Z,19.99
2017-12-21T12:03:12.811Z,20.03
2017-12-21T12:04:12.736Z,20.01
2017-12-21T12:05:12.717Z,19.84
2017-12-21T12:06:12.699Z,19.94
2017-12-21T12:07:12.677Z,19.88
2017-12-21T12:08:12.655Z,19.91
2017-12-21T12:09:12.670Z,19.83
2017-12-21T12:10:12.651Z,19.88
2017-12-21T12:11:12.596Z,19.92
2017-12-21T12:12:12.616Z,19.98
2017-12-21T12:13:12.592Z,20.05
2017-12-21T12:14:12.569Z,19.96
2017-12-21T12:15:12.521Z,19.99
2017-12-21T12:16:12.514Z,20.11
2017-12-21T12:17:12.512Z,19.99
2017-12-21T12:18:12.454Z,19.86
2017-12-21T12:19:12.458Z,19.96
2017-12-21T12:20:12.458Z,19.99
2017-12-21T12:21:12.437Z,19.98
2017-12-21T12:22:12.377Z,19.86
2017-12-21T12:23:12.359Z,20.01
2017-12-21T12:24:12.374Z,20.05
2017-12-21T12:25:12.351Z,20.24
2017-12-21T12:26:12.316Z,20.18
2017-12-21T12:27:12.317Z,20.20
2017-12-21T12:28:12.295Z,20.29
2017-12-21T12:29:12.244Z,20.23
2017-12-21T12:30:12.256Z,20.31
2017-12-21T12:31:12.239Z,20.24
2017-12-21T12:32:12.219Z,20.31
2017-12-21T12:33:12.163Z,20.26
2017-12-21T12:34:12.179Z,20.31
2017-12-21T12:35:12.125Z,20.23
2017-12-21T12:36:12.141Z,20.31
2017-12-21T12:37:12.101Z,20.26
2017-12-21T12:38:12.070Z,20.38
2017-12-21T12:39:12.067Z,20.33
2017-12-21T12:40:12.063Z,20.24
2017-12-21T12:41:12.014Z,20.24
2017-12-21T12:42:12.021Z,20.26
2017-12-21T12:43:11.972Z,20.29
2017-12-21T12:44:11.955Z,20.36
2017-12-21T12:45:11.950Z,20.32
2017-12-21T12:46:11.944Z,20.35
2017-12-21T12:47:11.895Z,20.31
2017-12-21T12:48:11.871Z,20.35
2017-12-21T12:49:11.890Z,20.35
2017-12-21T12:50:11.832Z,20.38
2017-12-21T12:51:11.854Z,20.41
2017-12-21T12:52:11.833Z,20.38
2017-12-21T12:53:11.779Z,20.35
2017-12-21T12:54:11.791Z,20.35
2017-12-21T12:55:11.948Z,20.33
2017-12-21T12:56:11.722Z,20.50
2017-12-21T12:57:11.736Z,20.48